Decoded Metar for KVUJ (ALBEMARLE STANLY in NC, USA) (IATA:VUJ) | Meteo·Mobile Aviation Weather
aviador You're here:

KVUJ Decoded Metar

ALBEMARLE STANLY in NC, USA
Report Time2019-10-21 06:55:00
UTC Time2019-10-21 07:10:55
Flight Rules lifr LIFR
WindCalm
Visibility805 m
Phenomena:Fog
Clouds:Overcast 002 Hf
Ceiling200 ft
Temp11°C (ISA -3)
Dew Point11°C (100% RH)
QNH1018 hPa
Density Alt285 ft
Elevation610 ft
Report Wrong Elevation
Raw Report
KVUJ 210655Z AUTO 00000KT 1/2SM FG OVC002 11/11 A3005 RMK AO2
T01060106=

Extra information for KVUJ:More info

Metar Taf Metar & Taf Last 4 Metars F.Rules Stats Wind Profile Meteogram Temp Stats Airport Information Weather charts Add Link Nearby VenuesMetar ALERT Operation Metar Decoded Social comments

AIRNAV info for KVUJ